Terminal Aerodrome Forecast
Issued by NWS

Home | Current Version | Previous Version | Text Only | Print | Product List | Glossary On
Versions: 1 2 3 4 5 6 7 8 9 10 11 12 13 14 15 16 17 18 19 20 21 22 23 24 25 26 27 28 29 30 31 32 33 34 35 36 37
578
FTUS41 KOKX 291129
TAFTEB
TAF
KTEB 291129Z 2912/3012 VRB04KT P6SM SCT035 BKN250
     FM291400 26008KT P6SM BKN250
     FM291600 27011G18KT P6SM BKN200
     FM292100 30010G17KT P6SM BKN250
     FM300000 VRB04KT P6SM SCT250=

USA.gov is the U.S. government's official web portal to all federal, state and local government web resources and services.